Louisville, Illinois
Current Conditions -  °F | °C
As of 8:15 AM on Saturday 20 Dec 2014 (Local Time) from KFOA Reporting Station
Clear Clear  
Wind Chill: 31°   Ceiling: Unl
Heat Index: 31°   Visibility: 7mi
Dew Point: 28°   Wind: 3mph
Humidity: 87%   Direction: 130°SE
Pressure: 30.31"   Gusts: NA
Location:  38.77°N, 88.5°W
Report Text: KFOA 201415Z AUTO 13003KT 7SM CLR 00/M02 A3031 RMK AO2 T10041024
Loading
Personal Weather Stations






























Interactive Weather Map New forecast layout! Learn more

10-Day Weather Forecast

Advertisements
Track Severe Weather on mobile